Time;durP1;ratioP1;P1;durP2;ratioP2;P2;SDS_P1;SDS_P2;PMS_P1;PMS_P2;Temp;Humidity;BMP_temperature;BMP_pressure;BME280_temperature;BME280_humidity;BME280_pressure;Samples;Min_cycle;Max_cycle;Signal;HPM_P1;HPM_P2
2022/10/05 00:02:23;;;;;;;5.15;4.45;;;12.20;99.90;;;;;;5034485;28;20072;-60
2022/10/05 00:04:54;;;;;;;7.10;4.78;;;12.20;99.90;;;;;;5034808;28;20037;-61
2022/10/05 00:07:21;;;;;;;6.45;4.88;;;12.20;99.90;;;;;;5034595;28;20476;-62
2022/10/05 00:09:56;;;;;;;7.88;4.90;;;12.20;99.90;;;;;;5034482;28;20025;-62
2022/10/05 00:12:23;;;;;;;6.13;4.35;;;12.20;99.90;;;;;;5034489;28;20021;-61
2022/10/05 00:14:54;;;;;;;5.60;4.28;;;12.10;99.90;;;;;;5034281;28;20053;-61
2022/10/05 00:17:21;;;;;;;6.75;4.78;;;12.00;99.90;;;;;;5034358;28;20113;-61
2022/10/05 00:19:51;;;;;;;6.22;5.20;;;12.00;99.90;;;;;;5034390;28;20101;-61
2022/10/05 00:22:31;;;;;;;7.28;5.72;;;11.90;99.90;;;;;;5034536;28;20076;-60
2022/10/05 00:25:02;;;;;;;8.93;6.10;;;11.80;99.90;;;;;;5034316;28;20041;-60
2022/10/05 00:27:35;;;;;;;6.88;5.65;;;11.80;99.90;;;;;;5034197;28;20029;-62
2022/10/05 00:30:12;;;;;;;7.65;5.95;;;11.80;99.90;;;;;;5034265;28;20033;-61
2022/10/05 00:32:39;;;;;;;6.55;5.32;;;11.70;99.90;;;;;;5034031;28;20033;-62
2022/10/05 00:35:05;;;;;;;6.63;5.63;;;11.70;99.90;;;;;;5033978;28;20072;-62
2022/10/05 00:37:31;;;;;;;10.93;7.35;;;11.60;99.90;;;;;;5034236;28;20083;-61
2022/10/05 00:39:56;;;;;;;8.68;6.68;;;11.60;99.90;;;;;;5034041;28;20033;-60
2022/10/05 00:42:47;;;;;;;8.98;6.32;;;11.60;99.90;;;;;;5033767;28;20112;-61
2022/10/05 00:45:19;;;;;;;7.68;6.10;;;11.50;99.90;;;;;;5033377;28;20063;-62
2022/10/05 00:47:50;;;;;;;9.55;5.70;;;11.50;99.90;;;;;;5033810;28;20495;-62
2022/10/05 00:50:35;;;;;;;7.57;5.57;;;11.50;99.90;;;;;;5016136;28;20017;-61
2022/10/05 00:53:17;;;;;;;8.15;5.45;;;11.60;99.90;;;;;;5033795;28;20064;-62
2022/10/05 00:56:15;;;;;;;9.55;5.15;;;11.60;99.90;;;;;;5033712;28;20032;-62
2022/10/05 00:59:19;;;;;;;4.78;4.25;;;11.60;99.90;;;;;;5024337;28;20380;-61
2022/10/05 01:01:56;;;;;;;4.40;4.00;;;11.50;99.90;;;;;;5018191;28;20033;-61
2022/10/05 01:04:28;;;;;;;3.85;3.50;;;11.50;99.90;;;;;;5033532;28;20041;-62
2022/10/05 01:07:06;;;;;;;4.72;4.15;;;11.50;99.90;;;;;;5033554;28;20032;-62
2022/10/05 01:09:43;;;;;;;3.67;2.92;;;11.40;99.90;;;;;;5033564;28;20025;-61
2022/10/05 01:12:27;;;;;;;4.70;3.83;;;11.40;99.90;;;;;;5033343;28;20083;-62
2022/10/05 01:15:28;;;;;;;5.53;3.80;;;11.40;99.90;;;;;;5033447;28;20049;-61
2022/10/05 01:18:09;;;;;;;3.60;3.00;;;11.40;99.90;;;;;;5033339;28;20041;-62
2022/10/05 01:20:58;;;;;;;3.95;3.13;;;11.40;99.90;;;;;;5033401;28;20032;-60
2022/10/05 01:23:48;;;;;;;3.55;2.95;;;11.40;99.90;;;;;;5033523;28;20037;-62
2022/10/05 01:26:22;;;;;;;4.15;3.30;;;11.30;99.90;;;;;;5033355;28;20033;-62
2022/10/05 01:29:01;;;;;;;4.60;3.70;;;11.30;99.90;;;;;;5033243;28;20033;-62
2022/10/05 01:31:50;;;;;;;3.63;3.25;;;11.20;99.90;;;;;;5033232;28;20026;-62
2022/10/05 01:34:53;;;;;;;4.47;3.83;;;11.20;99.90;;;;;;5033363;28;20029;-60
2022/10/05 01:37:48;;;;;;;5.13;4.10;;;11.10;99.90;;;;;;5012033;28;20080;-60
2022/10/05 01:40:34;;;;;;;4.03;3.60;;;11.10;99.90;;;;;;5033053;28;20467;-61
2022/10/05 01:43:15;;;;;;;4.88;4.13;;;11.10;99.90;;;;;;5033173;28;20378;-61
2022/10/05 01:45:46;;;;;;;4.68;3.70;;;11.10;99.90;;;;;;5033165;28;20034;-62
2022/10/05 01:48:36;;;;;;;5.18;4.10;;;11.10;99.90;;;;;;5033102;28;20022;-60
2022/10/05 01:51:15;;;;;;;4.32;3.58;;;11.00;99.90;;;;;;5032994;28;20034;-61
2022/10/05 01:54:05;;;;;;;7.30;4.65;;;11.10;99.90;;;;;;5033118;28;20025;-62
2022/10/05 01:56:41;;;;;;;5.10;3.60;;;11.10;99.90;;;;;;5032638;28;20018;-61
2022/10/05 01:59:21;;;;;;;4.80;3.75;;;11.10;99.90;;;;;;5032942;28;20029;-61
2022/10/05 02:02:02;;;;;;;4.43;4.03;;;11.00;99.90;;;;;;5032756;28;20500;-61
2022/10/05 02:04:38;;;;;;;3.80;3.42;;;10.90;99.90;;;;;;5032897;28;20021;-62
2022/10/05 02:07:13;;;;;;;5.72;4.13;;;10.80;99.90;;;;;;5032934;28;20140;-60
2022/10/05 02:09:50;;;;;;;6.65;4.35;;;10.80;99.90;;;;;;5032794;28;20028;-62
2022/10/05 02:12:22;;;;;;;4.63;4.15;;;10.70;99.90;;;;;;5035969;28;20109;-61
2022/10/05 02:14:53;;;;;;;4.63;4.22;;;10.70;99.90;;;;;;5036657;28;20392;-61
2022/10/05 02:17:24;;;;;;;4.50;3.92;;;10.70;99.90;;;;;;5036750;28;20025;-63
2022/10/05 02:19:57;;;;;;;6.18;4.50;;;10.70;99.90;;;;;;5036713;28;20083;-61
2022/10/05 02:22:44;;;;;;;5.53;4.30;;;10.70;99.90;;;;;;5036510;28;20026;-61
2022/10/05 02:25:20;;;;;;;6.15;4.50;;;10.60;99.90;;;;;;5036588;28;20029;-61
2022/10/05 02:27:57;;;;;;;6.35;4.85;;;10.60;99.90;;;;;;5036431;28;20065;-60
2022/10/05 02:30:23;;;;;;;5.55;4.65;;;10.60;99.90;;;;;;5036711;28;20388;-61
2022/10/05 02:33:03;;;;;;;4.60;3.70;;;10.50;99.90;;;;;;5036568;28;20021;-61
2022/10/05 02:35:29;;;;;;;4.40;4.00;;;10.50;99.90;;;;;;5036294;28;20020;-62
2022/10/05 02:38:22;;;;;;;4.38;3.65;;;10.50;99.90;;;;;;5018819;28;20384;-60
2022/10/05 02:41:03;;;;;;;5.25;3.72;;;10.50;99.90;;;;;;5036151;28;20029;-61
2022/10/05 02:43:40;;;;;;;4.10;3.40;;;10.40;99.90;;;;;;5036123;28;20097;-61
2022/10/05 02:46:27;;;;;;;4.70;3.50;;;10.40;99.90;;;;;;5036430;28;20422;-61
2022/10/05 02:48:59;;;;;;;4.40;3.58;;;10.50;99.90;;;;;;5036109;28;20021;-60
2022/10/05 02:51:44;;;;;;;4.35;3.53;;;10.50;99.90;;;;;;5036096;28;20519;-60
2022/10/05 02:54:47;;;;;;;4.40;3.10;;;10.40;99.90;;;;;;5035827;28;20045;-62
2022/10/05 02:57:43;;;;;;;3.67;2.67;;;10.40;99.90;;;;;;5035986;28;20025;-62
2022/10/05 03:00:15;;;;;;;3.47;2.80;;;10.40;99.90;;;;;;5035245;28;20116;-60
2022/10/05 03:02:57;;;;;;;3.05;2.40;;;10.40;99.90;;;;;;5035882;28;20099;-62
2022/10/05 03:05:44;;;;;;;3.67;2.78;;;10.30;99.90;;;;;;5035763;28;20045;-60
2022/10/05 03:08:37;;;;;;;2.75;2.55;;;10.30;99.90;;;;;;5035705;28;20034;-60
2022/10/05 03:11:10;;;;;;;4.20;2.75;;;10.20;99.90;;;;;;5035830;28;20514;-61
2022/10/05 03:13:59;;;;;;;2.75;2.25;;;10.30;99.90;;;;;;5035644;28;20509;-62
2022/10/05 03:16:46;;;;;;;2.78;2.45;;;10.20;99.90;;;;;;5035553;28;20033;-61
2022/10/05 03:19:38;;;;;;;2.75;2.25;;;10.20;99.90;;;;;;5035743;28;20387;-62
2022/10/05 03:22:29;;;;;;;3.40;2.65;;;10.20;99.90;;;;;;5034913;28;20463;-61
2022/10/05 03:25:19;;;;;;;3.42;2.90;;;10.10;99.90;;;;;;5035494;28;20025;-62
2022/10/05 03:28:02;;;;;;;3.80;3.17;;;10.10;99.90;;;;;;5035551;28;20526;-61
2022/10/05 03:30:37;;;;;;;3.72;3.08;;;10.00;99.90;;;;;;5035368;28;20048;-61
2022/10/05 03:33:21;;;;;;;3.70;3.08;;;10.10;99.90;;;;;;5035328;28;20028;-61
2022/10/05 03:35:53;;;;;;;3.33;2.97;;;10.00;99.90;;;;;;5035246;28;20491;-62
2022/10/05 03:38:40;;;;;;;4.75;3.80;;;10.00;99.90;;;;;;5034949;28;20472;-61
2022/10/05 03:41:21;;;;;;;4.70;3.05;;;10.00;99.90;;;;;;5035182;28;20033;-61
2022/10/05 03:43:58;;;;;;;5.22;3.95;;;10.00;99.90;;;;;;5035132;28;20479;-61
2022/10/05 03:46:50;;;;;;;6.13;4.50;;;9.90;99.90;;;;;;5034978;28;20387;-62
2022/10/05 03:49:21;;;;;;;3.83;3.20;;;10.00;99.90;;;;;;5034999;28;20026;-60
2022/10/05 03:52:13;;;;;;;5.55;4.40;;;9.90;99.90;;;;;;5034621;28;20026;-61
2022/10/05 03:54:56;;;;;;;6.10;4.00;;;10.00;99.90;;;;;;5034262;28;20041;-62
2022/10/05 03:57:28;;;;;;;6.07;3.45;;;9.90;99.90;;;;;;5035166;28;20113;-62
2022/10/05 04:00:03;;;;;;;4.88;3.88;;;9.90;99.90;;;;;;5034766;28;20045;-62
2022/10/05 04:02:39;;;;;;;3.83;3.20;;;9.90;99.90;;;;;;5034584;28;20550;-60
2022/10/05 04:05:16;;;;;;;4.03;3.60;;;9.90;99.90;;;;;;5034939;28;20030;-60
2022/10/05 04:08:31;;;;;;;3.65;3.05;;;9.90;99.90;;;;;;5034662;28;20033;-61
2022/10/05 04:11:03;;;;;;;5.25;3.60;;;9.80;99.90;;;;;;5002974;28;20060;-60
2022/10/05 04:13:36;;;;;;;3.90;3.28;;;9.90;99.90;;;;;;5034802;28;20033;-60
2022/10/05 04:16:21;;;;;;;3.05;2.80;;;9.80;99.90;;;;;;5034347;28;20036;-62
2022/10/05 04:19:22;;;;;;;3.35;2.80;;;9.80;99.90;;;;;;5034658;28;20049;-60
2022/10/05 04:22:06;;;;;;;3.20;2.50;;;9.70;99.90;;;;;;5029284;28;20037;-61
2022/10/05 04:24:31;;;;;;;;;;;9.70;99.90;;;;;;5034612;28;20061;-61
2022/10/05 04:27:11;;;;;;;4.57;3.80;;;9.70;99.90;;;;;;5034396;28;19912;-61
2022/10/05 04:29:52;;;;;;;4.22;3.50;;;9.60;99.90;;;;;;5034161;28;20014;-60
2022/10/05 04:32:43;;;;;;;5.43;3.47;;;9.60;99.90;;;;;;5034567;28;20017;-62
2022/10/05 04:35:20;;;;;;;4.35;3.67;;;9.60;99.90;;;;;;5033940;28;20056;-62
2022/10/05 04:38:05;;;;;;;3.92;3.47;;;9.60;99.90;;;;;;5034038;28;20091;-61
2022/10/05 04:40:52;;;;;;;4.13;3.42;;;9.60;99.90;;;;;;5034260;28;20022;-60
2022/10/05 04:43:34;;;;;;;4.50;3.42;;;9.60;99.90;;;;;;5034138;28;20025;-61
2022/10/05 04:46:05;;;;;;;4.88;4.05;;;9.60;99.90;;;;;;5033912;28;20487;-62
2022/10/05 04:49:08;;;;;;;5.15;4.18;;;9.60;99.90;;;;;;5033770;28;20025;-61
2022/10/05 04:51:33;;;;;;;6.18;4.15;;;9.50;99.90;;;;;;5033618;28;20021;-61
2022/10/05 04:54:26;;;;;;;8.30;5.40;;;9.60;99.90;;;;;;5033746;28;20088;-62
2022/10/05 04:57:00;;;;;;;5.75;4.10;;;9.50;99.90;;;;;;5033625;28;20032;-60
2022/10/05 04:59:47;;;;;;;4.95;3.92;;;9.50;99.90;;;;;;5033667;28;20025;-62
2022/10/05 05:02:43;;;;;;;4.97;4.15;;;9.50;99.90;;;;;;5033409;28;20045;-61
2022/10/05 05:05:44;;;;;;;3.75;3.20;;;9.50;99.90;;;;;;5033451;28;20476;-62
2022/10/05 05:08:37;;;;;;;4.50;3.47;;;9.60;99.90;;;;;;5033637;28;20053;-62
2022/10/05 05:11:15;;;;;;;4.20;3.50;;;9.60;99.90;;;;;;5033793;28;20040;-61
2022/10/05 05:13:54;;;;;;;5.88;4.53;;;9.60;99.90;;;;;;5033731;28;20259;-62
2022/10/05 05:16:30;;;;;;;6.28;5.00;;;9.70;99.90;;;;;;5033662;28;20076;-61
2022/10/05 05:19:21;;;;;;;5.57;4.40;;;9.70;99.90;;;;;;5033316;28;20113;-60
2022/10/05 05:21:47;;;;;;;6.38;4.45;;;9.70;99.90;;;;;;5033642;28;20032;-61
2022/10/05 05:24:31;;;;;;;6.28;4.70;;;9.80;99.90;;;;;;5033354;28;20025;-62
2022/10/05 05:27:14;;;;;;;7.00;5.50;;;9.90;99.90;;;;;;5033442;28;20025;-61
2022/10/05 05:30:00;;;;;;;12.50;7.50;;;9.90;99.90;;;;;;5033219;28;20057;-61
2022/10/05 05:32:26;;;;;;;6.05;4.93;;;10.00;99.90;;;;;;5033507;28;20026;-61
2022/10/05 05:35:10;;;;;;;10.77;8.05;;;10.10;99.90;;;;;;5032918;28;20541;-62
2022/10/05 05:37:49;;;;;;;8.10;6.63;;;10.10;99.90;;;;;;5033417;28;20025;-61
2022/10/05 05:40:18;;;;;;;7.93;6.72;;;10.20;99.90;;;;;;5033094;28;20053;-61
2022/10/05 05:43:06;;;;;;;9.45;6.97;;;10.20;99.90;;;;;;5033201;28;20025;-61
2022/10/05 05:45:35;;;;;;;10.15;7.28;;;10.30;99.90;;;;;;5033759;28;20021;-61
2022/10/05 05:48:04;;;;;;;8.85;6.70;;;10.30;99.90;;;;;;5037070;28;20483;-62
2022/10/05 05:50:42;;;;;;;7.03;6.32;;;10.40;99.90;;;;;;5037216;28;20049;-61
2022/10/05 05:53:21;;;;;;;7.78;6.95;;;10.50;99.90;;;;;;5037166;28;20025;-62
2022/10/05 05:56:11;;;;;;;7.90;7.05;;;10.50;99.90;;;;;;5037301;28;20029;-62
2022/10/05 05:58:50;;;;;;;8.98;7.40;;;10.50;99.90;;;;;;5022535;28;20127;-61
2022/10/05 06:01:48;;;;;;;9.13;6.75;;;10.60;99.90;;;;;;5036792;28;20136;-61
2022/10/05 06:04:29;;;;;;;7.72;5.90;;;10.70;99.90;;;;;;5031779;28;20042;-61
2022/10/05 06:06:57;;;;;;;8.10;5.97;;;10.80;99.90;;;;;;5036906;28;20030;-62
2022/10/05 06:09:59;;;;;;;8.05;6.68;;;10.90;99.90;;;;;;5036873;28;20026;-60
2022/10/05 06:12:48;;;;;;;8.27;6.30;;;11.00;99.90;;;;;;4998747;28;20061;-62
2022/10/05 06:15:17;;;;;;;6.50;5.78;;;11.10;99.90;;;;;;5036832;28;20426;-62
2022/10/05 06:17:47;;;;;;;6.55;5.60;;;11.30;99.90;;;;;;5036458;28;20025;-61
2022/10/05 06:20:22;;;;;;;6.90;5.75;;;11.50;99.90;;;;;;5036530;28;20030;-62
2022/10/05 06:22:49;;;;;;;6.85;5.70;;;12.00;99.90;;;;;;5036877;28;20374;-61
2022/10/05 06:25:40;;;;;;;7.93;6.50;;;13.90;99.90;;;;;;5036519;28;20391;-60
2022/10/05 06:28:11;;;;;;;8.00;6.65;;;16.00;98.20;;;;;;5025480;28;20112;-62
2022/10/05 06:31:18;;;;;;;15.77;11.43;;;17.20;82.30;;;;;;5036374;28;20468;-61
2022/10/05 06:33:49;;;;;;;17.02;12.93;;;18.00;73.40;;;;;;5035722;28;20053;-60
2022/10/05 06:36:32;;;;;;;17.42;13.20;;;18.80;67.10;;;;;;5036236;28;20562;-62
2022/10/05 06:39:17;;;;;;;15.15;12.23;;;19.40;65.60;;;;;;5036331;28;20104;-62
2022/10/05 06:42:07;;;;;;;13.77;11.27;;;20.70;62.00;;;;;;5036202;28;20049;-61
2022/10/05 06:44:42;;;;;;;16.27;13.02;;;21.80;57.80;;;;;;5036489;28;20032;-62
2022/10/05 06:47:22;;;;;;;13.75;11.38;;;21.80;55.90;;;;;;5035811;28;20029;-62
2022/10/05 06:50:38;;;;;;;20.00;15.95;;;22.90;54.50;;;;;;5036075;28;20021;-61
2022/10/05 06:53:27;;;;;;;20.60;16.67;;;23.60;52.40;;;;;;4994865;28;20037;-60
2022/10/05 06:56:08;;;;;;;18.40;16.50;;;23.90;51.40;;;;;;5035331;28;20446;-62
2022/10/05 06:58:59;;;;;;;17.50;15.70;;;24.80;49.80;;;;;;5034605;28;20068;-63
2022/10/05 07:01:52;;;;;;;13.88;12.48;;;25.30;48.40;;;;;;5035551;28;20140;-62
2022/10/05 07:04:29;;;;;;;12.35;11.15;;;25.70;47.80;;;;;;4985525;28;20042;-61
2022/10/05 07:07:00;;;;;;;10.48;9.43;;;26.10;47.30;;;;;;5035739;28;20029;-62
2022/10/05 07:10:02;;;;;;;9.88;8.95;;;26.80;46.00;;;;;;5035959;28;20426;-61
2022/10/05 07:13:02;;;;;;;8.23;7.43;;;27.20;45.40;;;;;;5035912;28;20026;-63
2022/10/05 07:16:03;;;;;;;7.00;6.40;;;27.20;45.40;;;;;;5035309;28;20104;-60
2022/10/05 07:18:52;;;;;;;7.35;6.53;;;27.70;44.70;;;;;;5035566;28;20427;-63
2022/10/05 07:21:29;;;;;;;6.53;6.03;;;28.30;44.10;;;;;;5035379;28;20466;-62
2022/10/05 07:24:12;;;;;;;6.18;5.57;;;28.90;43.40;;;;;;5035432;28;20021;-61
2022/10/05 07:26:55;;;;;;;6.63;6.03;;;29.60;42.30;;;;;;5035702;28;20048;-61
2022/10/05 07:29:39;;;;;;;6.05;5.55;;;29.50;41.70;;;;;;5035206;28;20030;-63
2022/10/05 07:32:29;;;;;;;6.03;4.75;;;29.60;42.00;;;;;;5035580;28;20353;-62
2022/10/05 07:37:52;;;;;;;9.52;8.55;;;29.80;42.80;;;;;;5035146;28;20018;-60
2022/10/05 07:37:58;;;;;;;9.93;9.02;;;30.10;41.30;;;;;;5034827;28;20499;-62
2022/10/05 07:40:51;;;;;;;8.88;8.07;;;30.70;41.20;;;;;;5035140;28;20072;-62
2022/10/05 07:43:37;;;;;;;7.60;6.90;;;31.00;40.80;;;;;;5024836;28;20030;-62
2022/10/05 07:46:30;;;;;;;6.32;5.72;;;31.70;40.30;;;;;;5035282;28;20083;-63
2022/10/05 07:49:38;;;;;;;6.97;5.07;;;31.60;39.70;;;;;;5025374;28;20539;-62
2022/10/05 07:52:24;;;;;;;6.57;4.57;;;32.30;38.70;;;;;;4935692;29;20023;-63
2022/10/05 07:55:03;;;;;;;4.88;4.30;;;32.40;37.50;;;;;;4935552;29;20027;-62
2022/10/05 07:57:39;;;;;;;4.40;4.00;;;31.90;38.50;;;;;;5006904;28;20041;-62
2022/10/05 08:00:08;;;;;;;4.40;4.00;;;32.00;40.40;;;;;;5034516;28;20503;-61
2022/10/05 08:02:51;;;;;;;4.28;3.85;;;32.00;38.30;;;;;;5034607;28;20042;-63
2022/10/05 08:05:30;;;;;;;3.80;3.43;;;32.20;38.80;;;;;;5034951;28;20387;-62
2022/10/05 08:08:17;;;;;;;4.13;3.75;;;32.30;39.10;;;;;;5034918;28;20028;-61
2022/10/05 08:10:56;;;;;;;4.20;3.80;;;32.70;38.40;;;;;;5034485;28;20025;-61
2022/10/05 08:13:49;;;;;;;3.78;3.47;;;32.50;39.00;;;;;;5034311;28;20022;-61
2022/10/05 08:16:16;;;;;;;3.35;3.05;;;32.70;38.70;;;;;;5034357;28;20022;-61
2022/10/05 08:19:35;;;;;;;3.63;3.22;;;32.70;36.70;;;;;;5034562;28;20148;-61
2022/10/05 08:22:09;;;;;;;3.47;2.92;;;32.40;37.70;;;;;;4935142;29;20059;-60
2022/10/05 08:25:03;;;;;;;3.28;2.97;;;32.60;38.20;;;;;;5019276;28;20038;-63
2022/10/05 08:27:47;;;;;;;4.20;2.97;;;32.40;37.50;;;;;;5030579;28;20034;-62
2022/10/05 08:30:15;;;;;;;3.00;2.70;;;32.20;35.80;;;;;;5034299;28;20022;-62
2022/10/05 08:32:50;;;;;;;3.67;3.08;;;29.50;37.90;;;;;;5034152;28;20029;-60
2022/10/05 08:35:33;;;;;;;2.95;2.60;;;26.90;39.60;;;;;;5034432;28;20108;-62
2022/10/05 08:38:02;;;;;;;4.18;2.70;;;25.20;42.10;;;;;;5033979;28;20022;-63
2022/10/05 08:40:55;;;;;;;3.58;2.97;;;24.00;45.10;;;;;;5034027;28;20057;-62
2022/10/05 08:43:36;;;;;;;3.42;3.13;;;23.20;45.90;;;;;;5033878;28;20040;-63
2022/10/05 08:46:11;;;;;;;3.58;3.05;;;23.50;46.20;;;;;;5033938;28;20099;-62
2022/10/05 08:48:48;;;;;;;2.85;2.58;;;23.20;48.30;;;;;;5033856;28;20017;-61
2022/10/05 08:52:02;;;;;;;2.70;2.50;;;22.70;47.50;;;;;;5033891;28;20026;-61
2022/10/05 08:54:54;;;;;;;3.22;2.75;;;22.20;49.20;;;;;;5032992;28;20111;-62
2022/10/05 08:58:02;;;;;;;2.17;1.98;;;21.90;51.00;;;;;;5033544;28;20036;-61
2022/10/05 09:00:49;;;;;;;2.75;2.20;;;21.70;50.40;;;;;;5033488;28;20036;-63
2022/10/05 09:03:24;;;;;;;3.63;2.28;;;21.50;51.00;;;;;;5033548;28;20033;-61
2022/10/05 09:06:24;;;;;;;2.47;2.13;;;21.20;50.50;;;;;;5033955;28;20108;-60
2022/10/05 09:09:20;;;;;;;1.92;1.70;;;21.10;49.50;;;;;;5033859;28;20030;-62
2022/10/05 09:12:26;;;;;;;2.63;1.80;;;20.90;50.70;;;;;;5033524;28;20026;-62
2022/10/05 09:15:14;;;;;;;1.83;1.60;;;20.70;51.30;;;;;;5033411;28;20045;-63
2022/10/05 09:17:55;;;;;;;2.88;2.42;;;20.50;54.20;;;;;;5033489;28;20064;-63
2022/10/05 09:20:31;;;;;;;2.45;2.00;;;20.50;52.10;;;;;;5032654;28;20483;-63
2022/10/05 09:23:04;;;;;;;2.60;1.77;;;20.40;51.30;;;;;;5033287;28;20467;-62
2022/10/05 09:25:43;;;;;;;2.38;1.25;;;20.80;51.80;;;;;;5033018;28;20033;-63
2022/10/05 09:28:21;;;;;;;1.52;1.42;;;21.50;48.60;;;;;;5033351;28;20047;-62
2022/10/05 09:31:11;;;;;;;1.48;1.15;;;21.90;47.90;;;;;;5033228;28;20080;-62
2022/10/05 09:33:55;;;;;;;1.05;1.00;;;22.40;46.30;;;;;;5033329;28;20029;-61
2022/10/05 09:36:30;;;;;;;0.70;0.70;;;22.80;45.60;;;;;;5033146;28;20121;-60
2022/10/05 09:39:11;;;;;;;1.45;0.88;;;23.30;47.60;;;;;;5033119;28;20033;-62
2022/10/05 09:42:02;;;;;;;0.90;0.90;;;23.40;43.20;;;;;;5032995;28;20022;-61
2022/10/05 09:44:49;;;;;;;0.70;0.65;;;23.40;43.60;;;;;;5033083;28;20487;-61
2022/10/05 09:48:04;;;;;;;0.60;0.50;;;23.80;40.40;;;;;;5033154;28;20032;-62
2022/10/05 09:50:40;;;;;;;0.50;0.50;;;23.90;40.20;;;;;;4945759;28;20031;-62
2022/10/05 09:53:26;;;;;;;1.60;0.50;;;24.00;44.90;;;;;;5033106;28;20067;-61
2022/10/05 09:56:04;;;;;;;1.08;0.80;;;24.40;43.50;;;;;;5032740;28;20447;-62
2022/10/05 09:58:32;;;;;;;0.77;0.50;;;24.90;39.90;;;;;;5033068;28;20057;-61
2022/10/05 10:01:25;;;;;;;1.05;0.60;;;25.20;37.10;;;;;;5032766;28;20053;-62
2022/10/05 10:04:12;;;;;;;0.50;0.50;;;25.00;37.00;;;;;;5033119;28;20030;-61
2022/10/05 10:07:15;;;;;;;0.65;0.35;;;25.20;38.80;;;;;;5033220;28;20034;-62
2022/10/05 10:09:53;;;;;;;0.60;0.50;;;25.40;39.90;;;;;;5032833;28;20489;-63
2022/10/05 10:12:46;;;;;;;3.88;0.70;;;25.80;44.00;;;;;;5032940;28;20091;-63
2022/10/05 10:15:14;;;;;;;;;;;26.00;41.10;;;;;;5033414;28;20049;-60
2022/10/05 10:17:58;;;;;;;1.90;1.70;;;26.30;40.40;;;;;;5032751;28;19916;-61
2022/10/05 10:20:29;;;;;;;1.70;1.48;;;26.20;44.00;;;;;;5032856;28;20033;-62
2022/10/05 10:23:30;;;;;;;1.38;1.23;;;26.40;44.30;;;;;;5032815;28;20088;-61
2022/10/05 10:26:30;;;;;;;1.25;1.10;;;26.60;40.90;;;;;;5011220;28;20050;-61
2022/10/05 10:29:33;;;;;;;1.38;1.20;;;26.20;42.70;;;;;;4949440;28;20034;-61
2022/10/05 10:32:26;;;;;;;1.20;1.10;;;26.40;47.70;;;;;;5033874;28;20017;-60
2022/10/05 10:35:24;;;;;;;1.65;1.30;;;26.50;42.40;;;;;;5036416;28;20022;-61
2022/10/05 10:38:27;;;;;;;1.65;1.40;;;26.60;43.20;;;;;;5036363;28;20025;-61
2022/10/05 10:41:12;;;;;;;1.58;1.35;;;26.90;42.90;;;;;;5036483;28;20037;-61
2022/10/05 10:44:09;;;;;;;1.27;1.10;;;27.20;42.70;;;;;;5036485;28;20120;-61
2022/10/05 10:46:47;;;;;;;1.38;1.27;;;27.20;43.00;;;;;;5036110;28;20025;-61
2022/10/05 10:49:14;;;;;;;1.60;1.05;;;27.10;41.30;;;;;;5036094;28;20052;-61
2022/10/05 10:51:53;;;;;;;2.08;1.58;;;27.10;40.70;;;;;;5036234;28;20036;-62
2022/10/05 10:54:34;;;;;;;1.40;1.20;;;27.00;43.30;;;;;;5036089;28;20079;-62
2022/10/05 10:57:04;;;;;;;1.27;1.00;;;27.10;38.30;;;;;;5036045;28;20075;-60
2022/10/05 10:59:43;;;;;;;1.50;1.00;;;26.80;41.30;;;;;;5036158;28;20500;-61
2022/10/05 11:02:30;;;;;;;1.88;1.10;;;26.90;38.30;;;;;;5035730;28;20045;-62
2022/10/05 11:05:23;;;;;;;1.02;0.93;;;27.20;39.30;;;;;;5035909;28;20053;-63
2022/10/05 11:07:52;;;;;;;1.30;1.10;;;27.40;43.00;;;;;;5035648;28;20032;-62
2022/10/05 11:11:06;;;;;;;2.05;1.23;;;27.60;41.20;;;;;;5035794;28;20017;-62
2022/10/05 11:14:01;;;;;;;2.95;1.50;;;27.70;38.40;;;;;;5035716;28;20140;-61
2022/10/05 11:16:55;;;;;;;1.80;1.00;;;27.60;43.40;;;;;;5024814;28;20099;-62
2022/10/05 11:19:54;;;;;;;1.38;1.27;;;27.80;42.60;;;;;;5035555;28;20033;-61
2022/10/05 11:22:28;;;;;;;1.60;1.50;;;28.00;37.50;;;;;;4994015;28;20049;-61
2022/10/05 11:25:18;;;;;;;1.98;1.42;;;27.60;38.00;;;;;;5035724;28;20019;-63
2022/10/05 11:27:52;;;;;;;1.80;1.08;;;27.60;40.50;;;;;;5035497;28;20021;-61
2022/10/05 11:30:27;;;;;;;1.70;1.25;;;27.80;38.60;;;;;;5035399;28;20083;-61
2022/10/05 11:33:34;;;;;;;1.70;1.30;;;27.20;37.60;;;;;;5035534;28;20025;-61
2022/10/05 11:36:12;;;;;;;1.52;1.27;;;26.90;38.00;;;;;;5021702;28;20038;-61
2022/10/05 11:39:15;;;;;;;1.13;1.02;;;27.10;38.60;;;;;;5035290;28;20026;-62
2022/10/05 11:42:22;;;;;;;1.52;1.10;;;27.40;42.40;;;;;;5035324;28;20021;-61
2022/10/05 11:45:10;;;;;;;1.38;1.13;;;27.80;40.30;;;;;;5013111;28;20046;-62
2022/10/05 11:48:03;;;;;;;1.23;1.00;;;28.10;41.70;;;;;;5035056;28;20037;-63
2022/10/05 11:51:07;;;;;;;1.13;0.82;;;28.10;35.30;;;;;;5034705;28;20021;-60
2022/10/05 11:53:40;;;;;;;0.60;0.60;;;27.50;35.70;;;;;;5035034;28;20021;-62
2022/10/05 11:56:31;;;;;;;1.73;0.80;;;27.40;36.50;;;;;;5035151;28;20029;-62
2022/10/05 11:59:17;;;;;;;0.75;0.70;;;27.80;39.50;;;;;;5034736;28;20079;-60
2022/10/05 12:02:03;;;;;;;1.15;0.93;;;28.00;38.80;;;;;;5034557;28;20060;-62
2022/10/05 12:04:35;;;;;;;0.60;0.60;;;28.10;38.20;;;;;;5034744;28;20104;-61
2022/10/05 12:07:22;;;;;;;1.23;0.60;;;28.20;38.60;;;;;;5034586;28;20034;-61
2022/10/05 12:10:20;;;;;;;0.70;0.60;;;28.00;36.00;;;;;;5034776;28;20468;-62
2022/10/05 12:13:13;;;;;;;0.70;0.68;;;28.00;35.90;;;;;;5034496;28;20476;-61
2022/10/05 12:15:46;;;;;;;;;;;28.40;36.70;;;;;;5034990;28;20490;-62
2022/10/05 12:18:15;;;;;;;1.65;0.70;;;28.30;36.60;;;;;;5034501;28;19908;-62
2022/10/05 12:21:10;;;;;;;0.70;0.70;;;28.10;36.20;;;;;;5034503;28;20026;-61
2022/10/05 12:23:45;;;;;;;0.65;0.60;;;27.80;38.00;;;;;;5021153;28;20491;-62
2022/10/05 12:26:36;;;;;;;0.70;0.70;;;27.90;38.30;;;;;;5034673;28;20033;-59
2022/10/05 12:29:19;;;;;;;0.90;0.80;;;28.20;37.60;;;;;;5034416;28;20017;-62
2022/10/05 12:31:56;;;;;;;;;;;28.50;36.40;;;;;;5034570;28;20097;-63
2022/10/05 12:34:39;;;;;;;1.05;0.75;;;28.40;36.40;;;;;;5034070;28;20274;-61
2022/10/05 12:37:46;;;;;;;0.65;0.65;;;28.50;38.50;;;;;;5016401;28;20387;-61
2022/10/05 12:40:32;;;;;;;0.50;0.50;;;28.90;37.70;;;;;;5006597;28;20065;-61
2022/10/05 12:43:03;;;;;;;0.40;0.40;;;29.20;37.60;;;;;;5017089;28;20369;-63
2022/10/05 12:45:50;;;;;;;0.68;0.68;;;29.20;35.50;;;;;;5033986;28;20017;-62
2022/10/05 12:48:34;;;;;;;0.90;0.80;;;29.10;39.40;;;;;;5034039;28;20026;-61
2022/10/05 12:51:13;;;;;;;1.05;1.00;;;29.10;35.20;;;;;;5033961;28;20025;-63
2022/10/05 12:54:23;;;;;;;2.17;1.20;;;29.10;34.20;;;;;;5034013;28;20025;-61
2022/10/05 12:57:20;;;;;;;1.80;1.20;;;29.10;33.10;;;;;;4979119;28;20041;-61
2022/10/05 12:59:56;;;;;;;1.30;0.80;;;29.00;34.50;;;;;;5033878;28;20049;-63
2022/10/05 13:02:31;;;;;;;0.77;0.70;;;29.10;34.30;;;;;;5033492;28;20041;-61
2022/10/05 13:05:08;;;;;;;0.70;0.70;;;28.90;34.50;;;;;;5033520;28;20104;-62
2022/10/05 13:07:59;;;;;;;1.67;0.65;;;28.70;35.20;;;;;;5033514;28;20100;-62
2022/10/05 13:10:55;;;;;;;0.63;0.60;;;28.70;35.40;;;;;;5033589;28;20057;-62
2022/10/05 13:13:27;;;;;;;0.65;0.50;;;28.50;40.30;;;;;;5033592;28;20052;-61
2022/10/05 13:16:14;;;;;;;0.67;0.67;;;28.50;35.00;;;;;;5033355;28;20498;-61
2022/10/05 13:18:48;;;;;;;0.50;0.40;;;28.40;34.40;;;;;;5033324;28;20031;-63
2022/10/05 13:21:25;;;;;;;0.55;0.50;;;28.50;36.70;;;;;;5033369;28;20032;-63
2022/10/05 13:24:03;;;;;;;0.50;0.43;;;28.40;38.30;;;;;;5033513;28;20029;-60
2022/10/05 13:26:39;;;;;;;0.80;0.80;;;28.40;37.50;;;;;;5033542;28;20383;-61
2022/10/05 13:29:15;;;;;;;0.80;0.80;;;28.40;37.30;;;;;;5033456;28;20021;-61
2022/10/05 13:31:48;;;;;;;1.05;1.00;;;28.20;35.90;;;;;;5033261;28;20034;-61
2022/10/05 13:34:24;;;;;;;1.30;1.20;;;27.90;38.40;;;;;;5033117;28;20100;-62
2022/10/05 13:37:14;;;;;;;1.40;1.30;;;27.80;38.60;;;;;;5033221;28;20026;-62
2022/10/05 13:39:49;;;;;;;1.70;1.60;;;27.70;37.10;;;;;;5033297;28;20369;-61
2022/10/05 13:42:21;;;;;;;1.45;1.35;;;27.80;37.30;;;;;;5033121;28;20033;-62
2022/10/05 13:44:57;;;;;;;1.17;1.08;;;28.20;37.30;;;;;;5033459;28;20031;-62
2022/10/05 13:47:33;;;;;;;1.10;1.00;;;28.50;36.80;;;;;;5032854;28;20037;-61
2022/10/05 13:50:25;;;;;;;0.90;0.80;;;28.50;35.70;;;;;;5033262;28;20029;-63
2022/10/05 13:53:10;;;;;;;0.82;0.73;;;27.80;35.50;;;;;;5032270;28;20042;-63
2022/10/05 13:55:46;;;;;;;1.65;1.20;;;27.80;38.00;;;;;;5033001;28;20037;-61
2022/10/05 13:58:12;;;;;;;2.00;1.25;;;27.60;38.00;;;;;;5033089;28;20033;-63
2022/10/05 14:01:00;;;;;;;1.20;1.10;;;27.60;39.20;;;;;;5032868;28;20091;-61
2022/10/05 14:03:33;;;;;;;1.48;1.30;;;27.90;37.00;;;;;;5032999;28;20052;-63
2022/10/05 14:06:29;;;;;;;2.13;1.95;;;28.40;36.90;;;;;;5033091;28;20041;-61
2022/10/05 14:08:58;;;;;;;1.90;1.80;;;28.60;36.00;;;;;;5033552;28;20033;-62
2022/10/05 14:11:32;;;;;;;2.97;1.92;;;28.90;35.80;;;;;;5036856;28;20029;-63